createdAt,value
2024-02-24T00:01:19.512Z,13.76
2024-02-24T00:03:47.244Z,13.82
2024-02-24T00:06:14.827Z,13.79
2024-02-24T00:08:43.471Z,13.88
2024-02-24T00:11:11.441Z,13.96
2024-02-24T00:13:38.877Z,13.80
2024-02-24T00:16:06.601Z,13.88
2024-02-24T00:18:34.936Z,13.81
2024-02-24T00:21:02.363Z,14.00
2024-02-24T00:23:30.803Z,13.60
2024-02-24T00:25:58.542Z,13.71
2024-02-24T00:28:26.040Z,13.58
2024-02-24T00:30:53.557Z,13.77
2024-02-24T00:33:21.263Z,13.81
2024-02-24T00:35:48.740Z,13.87
2024-02-24T00:38:16.245Z,13.87
2024-02-24T00:40:44.118Z,13.81
2024-02-24T00:43:11.591Z,13.76
2024-02-24T00:45:39.170Z,13.87
2024-02-24T00:48:07.199Z,14.01
2024-02-24T00:50:34.657Z,13.89
2024-02-24T00:53:02.176Z,13.93
2024-02-24T00:55:30.008Z,13.75
2024-02-24T00:57:57.442Z,13.87
2024-02-24T01:00:24.884Z,14.00
2024-02-24T01:02:52.644Z,14.06
2024-02-24T01:05:20.329Z,13.86
2024-02-24T01:07:47.921Z,13.99
2024-02-24T01:10:15.806Z,13.91
2024-02-24T01:12:43.298Z,13.82
2024-02-24T01:15:11.350Z,13.90
2024-02-24T01:17:39.306Z,13.97
2024-02-24T01:20:07.540Z,14.15
2024-02-24T01:22:34.965Z,14.21
2024-02-24T01:25:02.724Z,14.13
2024-02-24T01:27:30.235Z,13.99
2024-02-24T01:29:57.632Z,14.05
2024-02-24T01:32:25.368Z,14.09
2024-02-24T01:34:52.828Z,14.02
2024-02-24T01:37:20.289Z,13.99
2024-02-24T01:39:48.048Z,13.99
2024-02-24T01:42:15.534Z,13.85
2024-02-24T01:44:43.059Z,14.05
2024-02-24T01:47:10.790Z,14.05
2024-02-24T01:49:39.340Z,13.99
2024-02-24T01:52:07.499Z,14.22
2024-02-24T01:54:36.303Z,13.99
2024-02-24T01:57:06.729Z,13.96
2024-02-24T01:59:34.560Z,14.16
2024-02-24T02:02:02.017Z,14.03
2024-02-24T02:04:29.766Z,14.12
2024-02-24T02:06:58.338Z,13.90
2024-02-24T02:09:26.839Z,13.94
2024-02-24T02:12:02.848Z,13.99
2024-02-24T02:14:31.352Z,13.89
2024-02-24T02:16:59.047Z,13.95
2024-02-24T02:19:26.466Z,13.88
2024-02-24T02:21:54.081Z,13.93
2024-02-24T02:24:21.797Z,13.94
2024-02-24T02:26:49.294Z,13.87
2024-02-24T02:29:16.897Z,13.88
2024-02-24T02:31:44.621Z,13.82
2024-02-24T02:34:12.109Z,13.88
2024-02-24T02:36:39.587Z,13.91
2024-02-24T02:39:07.258Z,13.78
2024-02-24T02:41:34.718Z,13.79
2024-02-24T02:44:02.156Z,13.68
2024-02-24T02:46:29.821Z,13.82
2024-02-24T02:48:57.450Z,13.84
2024-02-24T02:51:25.018Z,13.69
2024-02-24T02:53:52.917Z,13.37
2024-02-24T02:56:22.240Z,13.53
2024-02-24T02:58:49.778Z,13.51
2024-02-24T03:01:17.526Z,13.67
2024-02-24T03:03:44.972Z,13.47
2024-02-24T03:06:12.565Z,13.57
2024-02-24T03:08:40.544Z,13.47
2024-02-24T03:11:17.320Z,13.47
2024-02-24T03:13:45.489Z,13.49
2024-02-24T03:16:12.912Z,13.83
2024-02-24T03:18:41.795Z,13.43
2024-02-24T03:21:09.503Z,13.43
2024-02-24T03:23:37.099Z,13.30
2024-02-24T03:26:04.840Z,13.30
2024-02-24T03:28:32.638Z,13.32
2024-02-24T03:31:00.051Z,13.05
2024-02-24T03:33:27.706Z,13.10
2024-02-24T03:35:55.673Z,12.94
2024-02-24T03:38:23.177Z,12.94
2024-02-24T03:40:50.603Z,12.89
2024-02-24T03:43:18.313Z,12.76
2024-02-24T03:45:45.820Z,12.64
2024-02-24T03:48:13.507Z,12.64
2024-02-24T03:50:41.298Z,12.63
2024-02-24T03:53:08.714Z,12.65
2024-02-24T03:55:36.207Z,12.64
2024-02-24T03:58:03.982Z,12.64
2024-02-24T04:00:36.213Z,12.71
2024-02-24T04:03:04.598Z,12.62
2024-02-24T04:05:32.125Z,12.65
2024-02-24T04:08:00.143Z,12.33
2024-02-24T04:10:27.862Z,12.41
2024-02-24T04:12:55.314Z,12.54
2024-02-24T04:15:23.465Z,12.50
2024-02-24T04:17:51.335Z,12.55
2024-02-24T04:20:19.062Z,12.45
2024-02-24T04:22:46.643Z,12.35
2024-02-24T04:25:14.525Z,12.24
2024-02-24T04:27:41.904Z,12.31
2024-02-24T04:30:09.510Z,12.48
2024-02-24T04:32:37.391Z,12.46
2024-02-24T04:35:05.256Z,12.54
2024-02-24T04:37:32.776Z,12.44
2024-02-24T04:40:00.477Z,12.54
2024-02-24T04:42:27.876Z,12.49
2024-02-24T04:44:55.401Z,12.55
2024-02-24T04:47:24.708Z,12.63
2024-02-24T04:49:52.577Z,12.76
2024-02-24T04:52:20.628Z,12.73
2024-02-24T04:54:48.381Z,12.74
2024-02-24T04:57:15.847Z,12.76
2024-02-24T04:59:43.552Z,12.72
2024-02-24T05:02:11.451Z,12.76
2024-02-24T05:04:38.941Z,12.87
2024-02-24T05:07:06.494Z,12.82
2024-02-24T05:09:34.326Z,12.94
2024-02-24T05:12:01.950Z,12.78
2024-02-24T05:14:29.602Z,12.69
2024-02-24T05:16:57.432Z,12.78
2024-02-24T05:19:24.888Z,12.82
2024-02-24T05:21:52.430Z,12.76
2024-02-24T05:24:20.276Z,12.66
2024-02-24T05:26:47.931Z,12.54
2024-02-24T05:29:17.527Z,12.58
2024-02-24T05:31:45.346Z,12.55
2024-02-24T05:34:12.850Z,12.79
2024-02-24T05:36:41.860Z,12.59
2024-02-24T05:39:10.634Z,12.52
2024-02-24T05:41:38.229Z,12.61
2024-02-24T05:44:05.728Z,12.60
2024-02-24T05:46:33.378Z,12.63
2024-02-24T05:49:01.013Z,12.61
2024-02-24T05:51:28.749Z,12.62
2024-02-24T05:53:57.195Z,12.75
2024-02-24T05:56:24.625Z,12.75
2024-02-24T05:58:52.149Z,12.74
2024-02-24T06:01:19.970Z,12.68
2024-02-24T06:03:47.857Z,12.71
2024-02-24T06:06:15.577Z,12.73
2024-02-24T06:08:43.171Z,12.82
2024-02-24T06:11:11.159Z,12.82
2024-02-24T06:13:38.811Z,12.95
2024-02-24T06:16:07.974Z,12.89
2024-02-24T06:18:35.926Z,12.88
2024-02-24T06:21:03.570Z,12.56
2024-02-24T06:23:31.558Z,12.81
2024-02-24T06:25:59.436Z,12.78
2024-02-24T06:28:26.881Z,12.84
2024-02-24T06:30:54.320Z,12.89
2024-02-24T06:33:22.174Z,12.71
2024-02-24T06:35:49.854Z,12.81
2024-02-24T06:38:18.214Z,12.84
2024-02-24T06:40:46.812Z,12.78
2024-02-24T06:43:14.657Z,13.20
2024-02-24T06:45:42.339Z,12.99
2024-02-24T06:48:10.393Z,12.90
2024-02-24T06:50:38.056Z,13.06
2024-02-24T06:53:05.836Z,13.06
2024-02-24T06:55:33.594Z,13.12
2024-02-24T06:58:01.076Z,13.22
2024-02-24T07:00:28.959Z,13.27
2024-02-24T07:02:56.860Z,13.46
2024-02-24T07:05:24.533Z,13.29
2024-02-24T07:07:52.063Z,13.49
2024-02-24T07:10:19.768Z,13.55
2024-02-24T07:12:47.511Z,13.54
2024-02-24T07:15:14.966Z,13.64
2024-02-24T07:17:43.889Z,13.65
2024-02-24T07:20:12.182Z,13.79
2024-02-24T07:22:39.843Z,13.57
2024-02-24T07:25:07.610Z,13.89
2024-02-24T07:27:35.762Z,13.60
2024-02-24T07:30:03.198Z,13.71
2024-02-24T07:32:31.072Z,13.82
2024-02-24T07:34:59.926Z,14.01
2024-02-24T07:37:27.411Z,13.91
2024-02-24T07:39:55.156Z,13.79
2024-02-24T07:42:22.660Z,13.96
2024-02-24T07:44:50.218Z,14.24
2024-02-24T07:47:18.827Z,14.27
2024-02-24T07:49:46.766Z,14.20
2024-02-24T07:52:14.304Z,14.32
2024-02-24T07:54:42.080Z,14.49
2024-02-24T07:57:09.570Z,14.72
2024-02-24T07:59:36.977Z,14.41
2024-02-24T08:02:04.834Z,14.77
2024-02-24T08:04:32.536Z,14.76
2024-02-24T08:06:59.972Z,14.92
2024-02-24T08:09:27.441Z,15.09
2024-02-24T08:11:55.412Z,15.48
2024-02-24T08:14:22.980Z,15.29
2024-02-24T08:16:50.453Z,15.33
2024-02-24T08:19:18.388Z,15.40
2024-02-24T08:21:45.913Z,15.56
2024-02-24T08:24:17.607Z,15.50
2024-02-24T08:26:46.520Z,15.64
2024-02-24T08:29:14.047Z,15.18
2024-02-24T08:31:43.901Z,14.91
2024-02-24T08:34:12.211Z,15.18
2024-02-24T08:36:40.030Z,15.16
2024-02-24T08:39:07.727Z,15.38
2024-02-24T08:41:37.885Z,15.36
2024-02-24T08:44:05.857Z,15.60
2024-02-24T08:46:33.237Z,15.37
2024-02-24T08:49:01.027Z,15.21
2024-02-24T08:51:28.527Z,15.56
2024-02-24T08:53:56.050Z,15.49
2024-02-24T08:56:24.140Z,15.65
2024-02-24T08:58:51.654Z,15.53
2024-02-24T09:01:22.289Z,15.45
2024-02-24T09:03:50.160Z,15.61
2024-02-24T09:06:17.758Z,15.35
2024-02-24T09:08:45.374Z,15.54
2024-02-24T09:11:13.395Z,15.29
2024-02-24T09:13:40.906Z,15.46
2024-02-24T09:16:08.300Z,14.49
2024-02-24T09:18:36.100Z,14.89
2024-02-24T09:21:03.696Z,15.43
2024-02-24T09:23:31.185Z,15.98
2024-02-24T09:25:59.240Z,15.80
2024-02-24T09:28:26.694Z,15.70
2024-02-24T09:30:54.128Z,15.76
2024-02-24T09:33:22.107Z,15.80
2024-02-24T09:35:49.741Z,16.13
2024-02-24T09:38:17.405Z,16.47
2024-02-24T09:40:45.189Z,16.10
2024-02-24T09:43:13.172Z,16.41
2024-02-24T09:45:43.522Z,16.35
2024-02-24T09:48:12.013Z,16.71
2024-02-24T09:50:40.245Z,17.05
2024-02-24T09:53:08.385Z,17.42
2024-02-24T09:55:36.762Z,17.67
2024-02-24T09:58:04.533Z,17.50
2024-02-24T10:00:32.023Z,17.72
2024-02-24T10:02:59.766Z,17.47
2024-02-24T10:05:27.421Z,17.59
2024-02-24T10:07:56.724Z,17.42
2024-02-24T10:10:29.383Z,17.61
2024-02-24T10:12:57.783Z,16.65
2024-02-24T10:15:26.199Z,16.23
2024-02-24T10:18:03.371Z,16.77
2024-02-24T10:20:31.012Z,17.13
2024-02-24T10:22:59.228Z,16.48
2024-02-24T10:25:26.661Z,17.09
2024-02-24T10:27:54.031Z,16.90
2024-02-24T10:30:24.294Z,17.36
2024-02-24T10:32:54.053Z,17.26
2024-02-24T10:35:22.027Z,17.92
2024-02-24T10:38:03.920Z,17.97
2024-02-24T10:40:37.408Z,17.35
2024-02-24T10:43:05.763Z,17.72
2024-02-24T10:45:33.243Z,17.95
2024-02-24T10:48:01.248Z,17.35
2024-02-24T10:50:29.301Z,17.73
2024-02-24T10:52:56.815Z,17.29
2024-02-24T10:55:24.604Z,16.67
2024-02-24T10:57:52.988Z,17.36
2024-02-24T11:00:33.327Z,17.52
2024-02-24T11:03:01.545Z,17.32
2024-02-24T11:05:29.246Z,17.38
2024-02-24T11:07:56.865Z,17.32
2024-02-24T11:10:33.078Z,17.46
2024-02-24T11:13:01.884Z,17.33
2024-02-24T11:15:29.552Z,17.97
2024-02-24T11:17:59.004Z,18.46
2024-02-24T11:20:47.273Z,18.28
2024-02-24T11:23:30.607Z,18.24
2024-02-24T11:26:10.195Z,17.44
2024-02-24T11:28:38.408Z,17.98
2024-02-24T11:31:05.814Z,18.19
2024-02-24T11:33:38.763Z,17.39
2024-02-24T11:36:07.543Z,17.71
2024-02-24T11:38:35.303Z,17.66
2024-02-24T11:41:06.661Z,17.75
2024-02-24T11:43:34.869Z,17.57
2024-02-24T11:46:03.529Z,17.79
2024-02-24T11:48:32.266Z,17.12
2024-02-24T11:51:00.222Z,17.77
2024-02-24T11:53:27.683Z,17.09
2024-02-24T11:55:55.501Z,17.66
2024-02-24T11:58:23.312Z,17.81
2024-02-24T12:00:50.770Z,17.93
2024-02-24T12:03:18.500Z,17.80
2024-02-24T12:05:46.299Z,17.77
2024-02-24T12:08:19.595Z,17.91
2024-02-24T12:10:47.445Z,17.68
2024-02-24T12:13:15.225Z,17.55
2024-02-24T12:15:44.415Z,18.13
2024-02-24T12:18:12.653Z,17.96
2024-02-24T12:20:41.703Z,17.94
2024-02-24T12:23:10.163Z,17.62
2024-02-24T12:25:37.949Z,17.93
2024-02-24T12:28:05.933Z,18.01
2024-02-24T12:30:41.240Z,18.14
2024-02-24T12:33:17.983Z,17.84
2024-02-24T12:35:48.348Z,18.07
2024-02-24T12:38:18.541Z,18.14
2024-02-24T12:40:46.186Z,18.22
2024-02-24T12:43:13.791Z,17.91
2024-02-24T12:45:41.630Z,18.13
2024-02-24T12:48:09.627Z,18.08
2024-02-24T12:50:37.445Z,18.28
2024-02-24T12:53:06.364Z,18.40
2024-02-24T12:55:34.093Z,18.48
2024-02-24T12:58:01.723Z,18.61
2024-02-24T13:00:29.412Z,18.07
2024-02-24T13:03:00.300Z,17.69
2024-02-24T13:05:28.080Z,17.75
2024-02-24T13:07:56.013Z,18.07
2024-02-24T13:10:23.626Z,18.31
2024-02-24T13:12:51.136Z,18.56
2024-02-24T13:15:18.909Z,18.63
2024-02-24T13:17:46.405Z,18.37
2024-02-24T13:20:13.974Z,18.69
2024-02-24T13:22:42.549Z,18.76
2024-02-24T13:25:10.229Z,18.27
2024-02-24T13:27:38.005Z,18.50
2024-02-24T13:30:06.544Z,18.33
2024-02-24T13:32:34.304Z,18.52
2024-02-24T13:35:01.944Z,18.65
2024-02-24T13:37:29.738Z,17.50
2024-02-24T13:39:57.139Z,18.13
2024-02-24T13:42:24.530Z,18.36
2024-02-24T13:44:52.352Z,18.45
2024-02-24T13:47:19.851Z,18.52
2024-02-24T13:49:47.354Z,18.46
2024-02-24T13:52:15.078Z,18.51
2024-02-24T13:54:42.479Z,18.47
2024-02-24T13:57:09.913Z,18.30
2024-02-24T13:59:37.693Z,18.38
2024-02-24T14:02:05.190Z,18.59
2024-02-24T14:04:33.044Z,18.58
2024-02-24T14:07:00.563Z,18.78
2024-02-24T14:09:28.097Z,18.62
2024-02-24T14:11:56.162Z,18.68
2024-02-24T14:14:23.742Z,18.59
2024-02-24T14:16:51.173Z,18.53
2024-02-24T14:19:22.631Z,18.17
2024-02-24T14:21:51.916Z,18.53
2024-02-24T14:24:19.709Z,18.29
2024-02-24T14:26:47.242Z,18.26
2024-02-24T14:29:14.768Z,18.31
2024-02-24T14:31:42.552Z,18.28
2024-02-24T14:34:10.153Z,17.82
2024-02-24T14:36:37.644Z,17.97
2024-02-24T14:39:06.755Z,17.96
2024-02-24T14:41:34.280Z,18.02
2024-02-24T14:44:01.894Z,17.92
2024-02-24T14:46:29.620Z,17.94
2024-02-24T14:48:57.231Z,17.77
2024-02-24T14:51:24.761Z,17.89
2024-02-24T14:53:52.872Z,17.83
2024-02-24T14:56:20.602Z,17.95
2024-02-24T14:58:48.093Z,17.72
2024-02-24T15:01:16.145Z,17.66
2024-02-24T15:03:45.867Z,17.65
2024-02-24T15:06:15.743Z,17.62
2024-02-24T15:08:43.735Z,17.59
2024-02-24T15:11:11.230Z,17.60
2024-02-24T15:13:38.843Z,17.48
2024-02-24T15:16:08.321Z,17.53
2024-02-24T15:18:36.218Z,17.53
2024-02-24T15:21:03.814Z,17.51
2024-02-24T15:23:31.813Z,17.40
2024-02-24T15:25:59.311Z,17.18
2024-02-24T15:28:27.145Z,17.20
2024-02-24T15:30:54.959Z,17.19
2024-02-24T15:33:23.191Z,17.19
2024-02-24T15:35:50.763Z,17.29
2024-02-24T15:38:18.492Z,17.06
2024-02-24T15:40:45.975Z,16.91
2024-02-24T15:43:13.421Z,16.91
2024-02-24T15:45:41.149Z,16.81
2024-02-24T15:48:08.834Z,16.72
2024-02-24T15:50:36.422Z,16.65
2024-02-24T15:53:04.245Z,16.55
2024-02-24T15:55:31.763Z,16.54
2024-02-24T15:58:01.128Z,16.43
2024-02-24T16:00:29.024Z,16.29
2024-02-24T16:02:57.035Z,16.18
2024-02-24T16:05:24.734Z,16.27
2024-02-24T16:07:52.205Z,16.14
2024-02-24T16:10:19.940Z,16.31
2024-02-24T16:12:48.759Z,16.07
2024-02-24T16:15:16.280Z,15.98
2024-02-24T16:17:44.063Z,15.87
2024-02-24T16:20:11.909Z,15.90
2024-02-24T16:22:40.831Z,15.90
2024-02-24T16:25:08.845Z,15.92
2024-02-24T16:27:36.250Z,15.80
2024-02-24T16:30:04.103Z,15.99
2024-02-24T16:32:32.011Z,15.86
2024-02-24T16:34:59.584Z,15.80
2024-02-24T16:37:27.018Z,15.64
2024-02-24T16:39:57.711Z,15.58
2024-02-24T16:42:25.147Z,15.56
2024-02-24T16:44:52.669Z,15.60
2024-02-24T16:47:20.443Z,15.68
2024-02-24T16:49:47.984Z,15.51
2024-02-24T16:52:15.383Z,15.44
2024-02-24T16:54:43.027Z,15.51
2024-02-24T16:57:10.630Z,15.46
2024-02-24T16:59:39.764Z,15.45
2024-02-24T17:02:08.268Z,15.38
2024-02-24T17:04:37.298Z,15.32
2024-02-24T17:07:07.088Z,15.41
2024-02-24T17:09:34.971Z,15.18
2024-02-24T17:12:04.068Z,15.27
2024-02-24T17:14:31.779Z,15.20
2024-02-24T17:16:59.442Z,15.38
2024-02-24T17:19:27.326Z,15.21
2024-02-24T17:21:54.863Z,15.28
2024-02-24T17:24:22.532Z,15.29
2024-02-24T17:26:50.929Z,15.20
2024-02-24T17:29:18.394Z,15.10
2024-02-24T17:31:46.123Z,15.08
2024-02-24T17:34:14.998Z,15.12
2024-02-24T17:36:46.942Z,15.09
2024-02-24T17:39:14.675Z,14.99
2024-02-24T17:41:42.346Z,15.06
2024-02-24T17:44:10.751Z,15.05
2024-02-24T17:46:39.312Z,15.00
2024-02-24T17:49:07.802Z,14.98
2024-02-24T17:51:35.376Z,14.94
2024-02-24T17:54:03.271Z,14.88
2024-02-24T17:56:33.752Z,14.67
2024-02-24T17:59:01.296Z,14.74
2024-02-24T18:01:28.977Z,14.71
2024-02-24T18:03:57.060Z,14.75
2024-02-24T18:06:24.824Z,14.63
2024-02-24T18:08:52.406Z,14.72
2024-02-24T18:11:21.101Z,14.65
2024-02-24T18:13:48.608Z,14.67
2024-02-24T18:16:16.160Z,14.63
2024-02-24T18:18:45.534Z,14.62
2024-02-24T18:21:18.304Z,14.60
2024-02-24T18:23:46.289Z,14.68
2024-02-24T18:26:13.835Z,14.68
2024-02-24T18:28:44.490Z,14.54
2024-02-24T18:31:12.337Z,14.59
2024-02-24T18:33:39.956Z,14.63
2024-02-24T18:36:07.820Z,14.35
2024-02-24T18:38:35.562Z,14.50
2024-02-24T18:41:03.148Z,14.54
2024-02-24T18:43:31.251Z,14.52
2024-02-24T18:45:59.217Z,14.67
2024-02-24T18:48:27.884Z,14.35
2024-02-24T18:50:56.268Z,14.13
2024-02-24T18:53:24.585Z,14.37
2024-02-24T18:55:52.076Z,14.24
2024-02-24T18:58:19.507Z,14.27
2024-02-24T19:00:47.539Z,14.13
2024-02-24T19:03:15.450Z,14.08
2024-02-24T19:05:43.469Z,14.05
2024-02-24T19:08:11.228Z,14.02
2024-02-24T19:10:39.266Z,13.94
2024-02-24T19:13:06.935Z,14.04
2024-02-24T19:15:36.024Z,14.03
2024-02-24T19:18:05.050Z,14.04
2024-02-24T19:20:32.869Z,13.99
2024-02-24T19:23:00.792Z,13.83
2024-02-24T19:25:28.233Z,13.91
2024-02-24T19:27:55.801Z,13.74
2024-02-24T19:30:26.105Z,13.67
2024-02-24T19:32:54.080Z,13.53
2024-02-24T19:35:21.776Z,13.65
2024-02-24T19:37:49.692Z,13.36
2024-02-24T19:40:19.536Z,13.29
2024-02-24T19:42:47.069Z,13.42
2024-02-24T19:45:15.058Z,13.61
2024-02-24T19:47:43.037Z,13.66
2024-02-24T19:50:10.893Z,13.78
2024-02-24T19:52:38.693Z,13.62
2024-02-24T19:55:07.233Z,13.56
2024-02-24T19:57:34.821Z,13.47
2024-02-24T20:00:05.193Z,13.78
2024-02-24T20:02:41.244Z,13.78
2024-02-24T20:05:09.731Z,13.55
2024-02-24T20:07:42.590Z,13.31
2024-02-24T20:10:10.113Z,13.49
2024-02-24T20:12:37.442Z,13.61
2024-02-24T20:15:04.916Z,13.71
2024-02-24T20:17:32.628Z,13.75
2024-02-24T20:20:00.529Z,13.73
2024-02-24T20:22:27.902Z,13.38
2024-02-24T20:24:55.372Z,13.46
2024-02-24T20:27:22.641Z,13.22
2024-02-24T20:29:50.233Z,13.26
2024-02-24T20:32:20.092Z,13.23
2024-02-24T20:34:47.413Z,13.56
2024-02-24T20:37:14.716Z,13.54
2024-02-24T20:39:41.994Z,13.27
2024-02-24T20:42:09.334Z,13.15
2024-02-24T20:44:36.689Z,13.00
2024-02-24T20:47:04.293Z,13.02
2024-02-24T20:49:31.666Z,12.81
2024-02-24T20:52:00.535Z,13.18
2024-02-24T20:54:29.953Z,13.28
2024-02-24T20:56:57.942Z,12.97
2024-02-24T20:59:25.445Z,12.87
2024-02-24T21:01:52.846Z,13.06
2024-02-24T21:04:20.206Z,13.20
2024-02-24T21:06:47.580Z,12.79
2024-02-24T21:09:15.092Z,12.78
2024-02-24T21:11:42.435Z,12.55
2024-02-24T21:14:11.458Z,12.92
2024-02-24T21:16:39.725Z,12.98
2024-02-24T21:19:08.676Z,13.20
2024-02-24T21:21:36.402Z,12.78
2024-02-24T21:24:03.993Z,13.07
2024-02-24T21:26:31.483Z,13.15
2024-02-24T21:28:58.910Z,13.22
2024-02-24T21:31:26.250Z,13.19
2024-02-24T21:33:53.756Z,13.08
2024-02-24T21:36:21.140Z,13.01
2024-02-24T21:38:48.737Z,13.02
2024-02-24T21:41:19.312Z,13.22
2024-02-24T21:43:46.795Z,12.77
2024-02-24T21:46:14.175Z,12.71
2024-02-24T21:48:41.602Z,12.60
2024-02-24T21:51:09.174Z,12.54
2024-02-24T21:53:36.527Z,12.51
2024-02-24T21:56:04.743Z,12.77
2024-02-24T21:58:32.365Z,13.04
2024-02-24T22:00:59.775Z,12.96
2024-02-24T22:03:27.943Z,12.85
2024-02-24T22:05:55.631Z,12.75
2024-02-24T22:08:23.270Z,12.42
2024-02-24T22:10:51.142Z,12.48
2024-02-24T22:13:19.647Z,12.31
2024-02-24T22:15:47.761Z,12.34
2024-02-24T22:18:15.668Z,12.16
2024-02-24T22:20:43.339Z,12.66
2024-02-24T22:23:10.895Z,12.91
2024-02-24T22:25:38.601Z,12.44
2024-02-24T22:28:06.404Z,12.68
2024-02-24T22:30:35.594Z,12.69
2024-02-24T22:33:03.561Z,12.58
2024-02-24T22:35:31.126Z,12.81
2024-02-24T22:37:59.172Z,12.61
2024-02-24T22:40:26.981Z,12.90
2024-02-24T22:42:54.382Z,12.57
2024-02-24T22:45:21.895Z,12.53
2024-02-24T22:47:49.796Z,12.57
2024-02-24T22:50:17.409Z,12.64
2024-02-24T22:52:44.801Z,12.41
2024-02-24T22:55:12.760Z,12.37
2024-02-24T22:57:40.387Z,12.59
2024-02-24T23:00:10.040Z,12.63
2024-02-24T23:02:37.891Z,12.55
2024-02-24T23:05:05.737Z,12.45
2024-02-24T23:07:33.124Z,12.63
2024-02-24T23:10:00.798Z,12.50
2024-02-24T23:12:28.326Z,12.69
2024-02-24T23:14:55.933Z,12.46
2024-02-24T23:17:24.483Z,12.40
2024-02-24T23:19:52.072Z,12.60
2024-02-24T23:22:19.559Z,12.30
2024-02-24T23:24:47.279Z,12.16
2024-02-24T23:27:15.102Z,12.48
2024-02-24T23:29:42.776Z,12.87
2024-02-24T23:32:11.229Z,12.54
2024-02-24T23:34:38.766Z,12.71
2024-02-24T23:37:06.234Z,12.65
2024-02-24T23:39:33.982Z,12.43
2024-02-24T23:42:01.481Z,12.63
2024-02-24T23:44:29.072Z,12.70
2024-02-24T23:46:56.784Z,12.73
2024-02-24T23:49:24.338Z,12.79
2024-02-24T23:51:53.333Z,11.95
2024-02-24T23:54:21.014Z,12.14
2024-02-24T23:56:48.489Z,12.42
2024-02-24T23:59:16.022Z,12.45
